createdAt,value
2016-10-17T00:00:07.971Z,23.35
2016-10-17T00:01:07.982Z,23.32
2016-10-17T00:02:08.346Z,23.33
2016-10-17T00:03:07.993Z,23.36
2016-10-17T00:04:07.687Z,23.32
2016-10-17T00:05:08.005Z,23.33
2016-10-17T00:06:08.335Z,23.25
2016-10-17T00:07:08.380Z,23.28
2016-10-17T00:08:08.346Z,23.28
2016-10-17T00:09:08.025Z,23.35
2016-10-17T00:10:07.722Z,23.28
2016-10-17T00:11:08.352Z,23.28
2016-10-17T00:12:08.099Z,23.27
2016-10-17T00:13:08.417Z,23.25
2016-10-17T00:14:08.062Z,23.32
2016-10-17T00:15:08.379Z,23.33
2016-10-17T00:16:08.454Z,23.31
2016-10-17T00:17:08.643Z,23.27
2016-10-17T00:18:07.772Z,23.35
2016-10-17T00:19:08.458Z,23.35
2016-10-17T00:20:08.098Z,23.32
2016-10-17T00:21:08.468Z,23.32
2016-10-17T00:22:08.424Z,23.31
2016-10-17T00:23:07.805Z,23.31
2016-10-17T00:24:07.815Z,23.27
2016-10-17T00:25:08.446Z,23.33
2016-10-17T00:26:08.136Z,23.31
2016-10-17T00:27:08.395Z,23.35
2016-10-17T00:28:08.201Z,23.35
2016-10-17T00:29:08.155Z,23.28
2016-10-17T00:30:08.216Z,23.33
2016-10-17T00:31:07.862Z,23.33
2016-10-17T00:32:07.867Z,23.32
2016-10-17T00:33:08.183Z,23.31
2016-10-17T00:34:07.933Z,23.33
2016-10-17T00:35:07.935Z,23.23
2016-10-17T00:36:07.938Z,23.32
2016-10-17T00:37:08.210Z,23.31
2016-10-17T00:38:07.902Z,23.32
2016-10-17T00:39:08.220Z,23.28
2016-10-17T00:40:08.548Z,23.33
2016-10-17T00:41:08.235Z,23.33
2016-10-17T00:42:08.242Z,23.32
2016-10-17T00:43:07.983Z,23.31
2016-10-17T00:44:08.305Z,23.32
2016-10-17T00:45:08.573Z,23.2
2016-10-17T00:46:08.268Z,23.32
2016-10-17T00:47:08.274Z,23.28
2016-10-17T00:48:08.593Z,23.2
2016-10-17T00:49:08.022Z,23.25
2016-10-17T00:50:08.607Z,23.32
2016-10-17T00:51:07.985Z,23.22
2016-10-17T00:52:08.676Z,23.2
2016-10-17T00:53:08.625Z,23.28
2016-10-17T00:54:08.370Z,23.27
2016-10-17T00:55:08.392Z,23.19
2016-10-17T00:56:08.333Z,23.2
2016-10-17T00:57:08.654Z,23.19
2016-10-17T00:58:08.660Z,23.2
2016-10-17T00:59:08.352Z,23.28
2016-10-17T01:00:08.361Z,23.25
2016-10-17T01:01:08.675Z,23.32
2016-10-17T01:02:08.748Z,23.27
2016-10-17T01:03:08.066Z,23.22
2016-10-17T01:04:08.392Z,23.25
2016-10-17T01:05:08.443Z,23.25
2016-10-17T01:06:08.136Z,23.27
2016-10-17T01:07:08.774Z,23.25
2016-10-17T01:08:08.153Z,23.31
2016-10-17T01:09:08.420Z,23.33
2016-10-17T01:10:08.429Z,23.28
2016-10-17T01:11:08.436Z,23.22
2016-10-17T01:12:08.486Z,23.31
2016-10-17T01:13:08.447Z,23.25
2016-10-17T01:14:08.460Z,23.17
2016-10-17T01:15:08.505Z,23.31
2016-10-17T01:16:08.469Z,23.22
2016-10-17T01:17:08.470Z,23.19
2016-10-17T01:18:08.530Z,23.22
2016-10-17T01:19:08.585Z,23.22
2016-10-17T01:20:08.804Z,23.32
2016-10-17T01:21:08.812Z,23.2
2016-10-17T01:22:08.815Z,23.28
2016-10-17T01:23:08.587Z,23.23
2016-10-17T01:24:08.828Z,23.31
2016-10-17T01:25:08.213Z,23.23
2016-10-17T01:26:08.267Z,23.33
2016-10-17T01:27:08.904Z,23.32
2016-10-17T01:28:08.284Z,23.33
2016-10-17T01:29:08.547Z,23.32
2016-10-17T01:30:08.873Z,23.28
2016-10-17T01:31:08.570Z,23.25
2016-10-17T01:32:08.261Z,23.19
2016-10-17T01:33:08.889Z,23.19
2016-10-17T01:34:08.320Z,23.2
2016-10-17T01:35:08.954Z,23.33
2016-10-17T01:36:08.597Z,23.28
2016-10-17T01:37:08.917Z,23.23
2016-10-17T01:38:08.610Z,23.33
2016-10-17T01:39:08.666Z,23.27
2016-10-17T01:40:08.621Z,23.36
2016-10-17T01:41:08.678Z,23.23
2016-10-17T01:42:08.963Z,23.35
2016-10-17T01:43:09.006Z,23.28
2016-10-17T01:44:08.336Z,23.31
2016-10-17T01:45:08.589Z,23.28
2016-10-17T01:46:08.659Z,23.31
2016-10-17T01:47:08.673Z,23.31
2016-10-17T01:48:08.675Z,23.19
2016-10-17T01:49:08.682Z,23.33
2016-10-17T01:50:08.999Z,23.19
2016-10-17T01:51:08.381Z,23.31
2016-10-17T01:52:08.698Z,23.33
2016-10-17T01:53:09.068Z,23.33
2016-10-17T01:54:08.711Z,23.28
2016-10-17T01:55:08.719Z,23.25
2016-10-17T01:56:09.037Z,23.31
2016-10-17T01:57:08.734Z,23.28
2016-10-17T01:58:09.053Z,23.2
2016-10-17T01:59:08.802Z,23.33
2016-10-17T02:00:08.749Z,23.32
2016-10-17T02:01:09.069Z,23.33
2016-10-17T02:02:08.769Z,23.32
2016-10-17T02:03:09.086Z,23.32
2016-10-17T02:04:08.785Z,23.35
2016-10-17T02:05:08.939Z,23.28
2016-10-17T02:06:09.109Z,23.36
2016-10-17T02:07:09.162Z,23.38
2016-10-17T02:08:09.167Z,23.31
2016-10-17T02:09:08.498Z,23.27
2016-10-17T02:10:08.866Z,23.28
2016-10-17T02:11:09.188Z,23.27
2016-10-17T02:12:08.832Z,23.36
2016-10-17T02:13:08.524Z,23.35
2016-10-17T02:14:08.843Z,23.33
2016-10-17T02:15:08.852Z,23.32
2016-10-17T02:16:08.858Z,23.36
2016-10-17T02:17:09.175Z,23.36
2016-10-17T02:18:08.872Z,23.32
2016-10-17T02:19:08.879Z,23.31
2016-10-17T02:20:08.884Z,23.32
2016-10-17T02:21:08.629Z,23.27
2016-10-17T02:22:08.908Z,23.36
2016-10-17T02:23:09.304Z,23.32
2016-10-17T02:24:08.939Z,23.28
2016-10-17T02:25:08.970Z,23.31
2016-10-17T02:26:08.977Z,23.27
2016-10-17T02:27:09.032Z,23.31
2016-10-17T02:28:08.965Z,23.33
2016-10-17T02:29:08.945Z,23.32
2016-10-17T02:30:08.969Z,23.33
2016-10-17T02:31:09.267Z,23.33
2016-10-17T02:32:08.659Z,23.32
2016-10-17T02:33:08.973Z,23.32
2016-10-17T02:34:08.682Z,23.32
2016-10-17T02:35:08.985Z,23.28
2016-10-17T02:36:08.992Z,23.35
2016-10-17T02:37:09.049Z,23.35
2016-10-17T02:38:09.004Z,23.33
2016-10-17T02:39:09.012Z,23.32
2016-10-17T02:40:09.383Z,23.33
2016-10-17T02:41:09.340Z,23.25
2016-10-17T02:42:09.083Z,23.31
2016-10-17T02:43:09.402Z,23.32
2016-10-17T02:44:09.047Z,23.35
2016-10-17T02:45:09.368Z,23.32
2016-10-17T02:46:09.380Z,23.32
2016-10-17T02:47:09.379Z,23.27
2016-10-17T02:48:09.076Z,23.36
2016-10-17T02:49:09.077Z,23.32
2016-10-17T02:50:09.453Z,23.31
2016-10-17T02:51:09.090Z,23.36
2016-10-17T02:52:09.110Z,23.31
2016-10-17T02:53:09.421Z,23.35
2016-10-17T02:54:09.113Z,23.28
2016-10-17T02:55:08.860Z,23.33
2016-10-17T02:56:09.129Z,23.36
2016-10-17T02:57:09.184Z,23.33
2016-10-17T02:58:09.453Z,23.2
2016-10-17T02:59:08.884Z,23.28
2016-10-17T03:00:09.153Z,23.25
2016-10-17T03:01:09.474Z,23.31
2016-10-17T03:02:08.856Z,23.25
2016-10-17T03:03:09.175Z,23.27
2016-10-17T03:04:08.871Z,23.2
2016-10-17T03:05:09.198Z,23.28
2016-10-17T03:06:09.244Z,23.28
2016-10-17T03:07:08.888Z,23.31
2016-10-17T03:08:09.518Z,23.17
2016-10-17T03:09:09.215Z,23.2
2016-10-17T03:10:08.908Z,23.32
2016-10-17T03:11:09.538Z,23.28
2016-10-17T03:12:08.919Z,23.28
2016-10-17T03:13:08.967Z,23.23
2016-10-17T03:14:09.249Z,23.32
2016-10-17T03:15:09.356Z,23.25
2016-10-17T03:16:08.994Z,23.31
2016-10-17T03:17:09.268Z,23.22
2016-10-17T03:18:09.273Z,23.35
2016-10-17T03:19:09.344Z,23.32
2016-10-17T03:20:09.599Z,23.22
2016-10-17T03:21:09.295Z,23.27
2016-10-17T03:22:09.608Z,23.33
2016-10-17T03:23:09.308Z,23.32
2016-10-17T03:24:09.049Z,23.33
2016-10-17T03:25:09.006Z,23.36
2016-10-17T03:26:09.326Z,23.22
2016-10-17T03:27:09.646Z,23.28
2016-10-17T03:28:09.343Z,23.32
2016-10-17T03:29:09.393Z,23.33
2016-10-17T03:30:09.091Z,23.25
2016-10-17T03:31:09.722Z,23.19
2016-10-17T03:32:09.104Z,23.27
2016-10-17T03:33:09.685Z,23.19
2016-10-17T03:34:09.380Z,23.23
2016-10-17T03:35:09.697Z,23.32
2016-10-17T03:36:09.083Z,23.2
2016-10-17T03:37:09.406Z,23.27
2016-10-17T03:38:09.716Z,23.22
2016-10-17T03:39:09.170Z,23.2
2016-10-17T03:40:09.733Z,23.17
2016-10-17T03:41:09.410Z,23.25
2016-10-17T03:42:09.746Z,23.27
2016-10-17T03:43:09.437Z,23.23
2016-10-17T03:44:09.133Z,23.19
2016-10-17T03:45:09.450Z,23.2
2016-10-17T03:46:09.457Z,23.27
2016-10-17T03:47:09.827Z,23.17
2016-10-17T03:48:09.158Z,23.25
2016-10-17T03:49:09.790Z,23.22
2016-10-17T03:50:09.798Z,23.25
2016-10-17T03:51:09.488Z,23.25
2016-10-17T03:52:09.234Z,23.19
2016-10-17T03:53:09.503Z,23.19
2016-10-17T03:54:09.509Z,23.25
2016-10-17T03:55:09.203Z,23.2
2016-10-17T03:56:09.520Z,23.25
2016-10-17T03:57:09.620Z,23.25
2016-10-17T03:58:09.226Z,23.31
2016-10-17T03:59:09.856Z,23.19
2016-10-17T04:00:09.548Z,23.19
2016-10-17T04:01:09.555Z,23.16
2016-10-17T04:02:09.927Z,23.33
2016-10-17T04:03:09.572Z,23.32
2016-10-17T04:04:09.511Z,23.2
2016-10-17T04:05:09.583Z,23.23
2016-10-17T04:06:09.589Z,23.32
2016-10-17T04:07:09.595Z,23.39
2016-10-17T04:08:09.600Z,23.33
2016-10-17T04:09:09.658Z,23.35
2016-10-17T04:10:09.300Z,23.32
2016-10-17T04:11:09.622Z,23.31
2016-10-17T04:12:09.939Z,23.35
2016-10-17T04:13:09.943Z,23.28
2016-10-17T04:14:09.642Z,23.36
2016-10-17T04:15:09.648Z,23.35
2016-10-17T04:16:09.968Z,23.36
2016-10-17T04:17:09.349Z,23.32
2016-10-17T04:18:09.668Z,23.28
2016-10-17T04:19:09.999Z,23.35
2016-10-17T04:20:09.685Z,23.35
2016-10-17T04:21:10.104Z,23.31
2016-10-17T04:22:09.695Z,23.28
2016-10-17T04:23:10.112Z,23.25
2016-10-17T04:24:09.710Z,23.27
2016-10-17T04:25:10.082Z,23.35
2016-10-17T04:26:10.045Z,23.31
2016-10-17T04:27:09.467Z,23.28
2016-10-17T04:28:09.731Z,23.28
2016-10-17T04:29:09.743Z,23.28
2016-10-17T04:30:10.064Z,23.27
2016-10-17T04:31:10.071Z,23.32
2016-10-17T04:32:10.074Z,23.32
2016-10-17T04:33:10.088Z,23.4
2016-10-17T04:34:09.512Z,23.27
2016-10-17T04:35:09.832Z,23.33
2016-10-17T04:36:10.096Z,23.35
2016-10-17T04:37:10.158Z,23.32
2016-10-17T04:38:10.113Z,23.35
2016-10-17T04:39:09.859Z,23.31
2016-10-17T04:40:09.811Z,23.36
2016-10-17T04:41:10.131Z,23.28
2016-10-17T04:42:09.828Z,23.36
2016-10-17T04:43:09.770Z,23.31
2016-10-17T04:44:09.526Z,23.28
2016-10-17T04:45:09.846Z,23.33
2016-10-17T04:46:10.370Z,23.38
2016-10-17T04:47:10.221Z,23.36
2016-10-17T04:48:10.178Z,23.36
2016-10-17T04:49:09.872Z,23.35
2016-10-17T04:50:10.196Z,23.36
2016-10-17T04:51:10.248Z,23.36
2016-10-17T04:52:09.898Z,23.35
2016-10-17T04:53:09.949Z,23.39
2016-10-17T04:54:09.954Z,23.31
2016-10-17T04:55:10.244Z,23.33
2016-10-17T04:56:09.963Z,23.35
2016-10-17T04:57:09.924Z,23.33
2016-10-17T04:58:09.930Z,23.28
2016-10-17T04:59:09.985Z,23.31
2016-10-17T05:00:09.996Z,23.28
2016-10-17T05:01:10.268Z,23.32
2016-10-17T05:02:09.956Z,23.33
2016-10-17T05:03:10.018Z,23.28
2016-10-17T05:04:09.967Z,23.38
2016-10-17T05:05:10.023Z,23.33
2016-10-17T05:06:10.293Z,23.25
2016-10-17T05:07:10.039Z,23.31
2016-10-17T05:08:09.681Z,23.33
2016-10-17T05:09:09.687Z,23.33
2016-10-17T05:10:10.320Z,23.28
2016-10-17T05:11:10.016Z,23.35
2016-10-17T05:12:09.755Z,23.32
2016-10-17T05:13:10.026Z,23.36
2016-10-17T05:14:09.721Z,23.32
2016-10-17T05:15:10.040Z,23.32
2016-10-17T05:16:10.048Z,23.35
2016-10-17T05:17:09.747Z,23.33
2016-10-17T05:18:10.109Z,23.35
2016-10-17T05:19:10.379Z,23.25
2016-10-17T05:20:10.073Z,23.32
2016-10-17T05:21:10.695Z,23.28
2016-10-17T05:22:10.460Z,23.31
2016-10-17T05:23:10.091Z,23.31
2016-10-17T05:24:10.102Z,23.32
2016-10-17T05:25:10.150Z,23.32
2016-10-17T05:26:10.424Z,23.32
2016-10-17T05:27:10.166Z,23.28
2016-10-17T05:28:10.487Z,23.33
2016-10-17T05:29:10.139Z,23.32
2016-10-17T05:30:09.881Z,23.32
2016-10-17T05:31:10.194Z,23.35
2016-10-17T05:32:10.158Z,23.28
2016-10-17T05:33:10.157Z,23.36
2016-10-17T05:34:10.481Z,23.36
2016-10-17T05:35:09.855Z,23.35
2016-10-17T05:36:09.865Z,23.27
2016-10-17T05:37:10.492Z,23.35
2016-10-17T05:38:10.500Z,23.28
2016-10-17T05:39:10.508Z,23.36
2016-10-17T05:40:10.523Z,23.32
2016-10-17T05:41:09.894Z,23.36
2016-10-17T05:42:09.903Z,23.33
2016-10-17T05:43:10.218Z,23.32
2016-10-17T05:44:10.543Z,23.32
2016-10-17T05:45:09.979Z,23.31
2016-10-17T05:46:10.241Z,23.31
2016-10-17T05:47:10.248Z,23.35
2016-10-17T05:48:10.260Z,23.33
2016-10-17T05:49:10.573Z,23.28
2016-10-17T05:50:10.368Z,23.35
2016-10-17T05:51:10.326Z,23.28
2016-10-17T05:52:10.278Z,23.31
2016-10-17T05:53:10.288Z,23.35
2016-10-17T05:54:10.343Z,23.39
2016-10-17T05:55:10.295Z,23.35
2016-10-17T05:56:10.304Z,23.28
2016-10-17T05:57:10.623Z,23.32
2016-10-17T05:58:10.630Z,23.35
2016-10-17T05:59:10.327Z,23.31
2016-10-17T06:00:10.741Z,23.31
2016-10-17T06:01:10.650Z,23.33
2016-10-17T06:02:10.656Z,23.31
2016-10-17T06:03:10.350Z,23.32
2016-10-17T06:04:10.366Z,23.32
2016-10-17T06:05:10.413Z,23.32
2016-10-17T06:06:10.057Z,23.32
2016-10-17T06:07:10.736Z,23.28
2016-10-17T06:08:10.068Z,23.33
2016-10-17T06:09:10.443Z,23.33
2016-10-17T06:10:10.395Z,23.36
2016-10-17T06:11:10.398Z,23.33
2016-10-17T06:12:10.141Z,23.28
2016-10-17T06:13:10.718Z,23.33
2016-10-17T06:14:10.740Z,23.33
2016-10-17T06:15:10.430Z,23.32
2016-10-17T06:16:10.804Z,23.36
2016-10-17T06:17:10.495Z,23.39
2016-10-17T06:18:10.446Z,23.38
2016-10-17T06:19:10.137Z,23.4
2016-10-17T06:20:10.462Z,23.28
2016-10-17T06:21:10.515Z,23.36
2016-10-17T06:22:10.889Z,23.31
2016-10-17T06:23:10.166Z,23.46
2016-10-17T06:24:10.797Z,23.36
2016-10-17T06:25:10.852Z,23.38
2016-10-17T06:26:10.859Z,23.36
2016-10-17T06:27:10.503Z,23.42
2016-10-17T06:28:10.196Z,23.4
2016-10-17T06:29:10.826Z,23.39
2016-10-17T06:30:10.885Z,23.42
2016-10-17T06:31:10.842Z,23.42
2016-10-17T06:32:10.536Z,23.4
2016-10-17T06:33:10.852Z,23.4
2016-10-17T06:34:10.862Z,23.38
2016-10-17T06:35:10.244Z,23.46
2016-10-17T06:36:10.559Z,23.39
2016-10-17T06:37:10.879Z,23.42
2016-10-17T06:38:10.884Z,23.43
2016-10-17T06:39:10.267Z,23.38
2016-10-17T06:40:10.899Z,23.38
2016-10-17T06:41:10.640Z,23.43
2016-10-17T06:42:10.922Z,23.39
2016-10-17T06:43:10.605Z,23.43
2016-10-17T06:44:10.615Z,23.38
2016-10-17T06:45:10.621Z,23.48
2016-10-17T06:46:10.677Z,23.38
2016-10-17T06:47:10.635Z,23.39
2016-10-17T06:48:10.640Z,23.46
2016-10-17T06:49:10.699Z,23.47
2016-10-17T06:50:11.015Z,23.47
2016-10-17T06:51:11.020Z,23.4
2016-10-17T06:52:10.664Z,23.48
2016-10-17T06:53:10.970Z,23.43
2016-10-17T06:54:10.988Z,23.47
2016-10-17T06:55:10.997Z,23.47
2016-10-17T06:56:10.691Z,23.47
2016-10-17T06:57:10.705Z,23.4
2016-10-17T06:58:10.762Z,23.42
2016-10-17T06:59:11.024Z,23.42
2016-10-17T07:00:10.764Z,23.36
2016-10-17T07:01:11.040Z,23.43
2016-10-17T07:02:10.733Z,23.43
2016-10-17T07:03:11.047Z,23.36
2016-10-17T07:04:10.744Z,23.36
2016-10-17T07:05:10.748Z,23.36
2016-10-17T07:06:11.121Z,23.33
2016-10-17T07:07:11.076Z,23.36
2016-10-17T07:08:10.773Z,23.33
2016-10-17T07:09:11.092Z,23.32
2016-10-17T07:10:11.096Z,23.28
2016-10-17T07:11:10.790Z,23.28
2016-10-17T07:12:10.846Z,23.32
2016-10-17T07:13:10.883Z,23.32
2016-10-17T07:14:11.122Z,23.4
2016-10-17T07:15:10.819Z,23.38
2016-10-17T07:16:11.136Z,23.35
2016-10-17T07:17:10.825Z,23.39
2016-10-17T07:18:10.837Z,23.4
2016-10-17T07:19:10.841Z,23.36
2016-10-17T07:20:10.947Z,23.35
2016-10-17T07:21:10.542Z,23.39
2016-10-17T07:22:10.543Z,23.43
2016-10-17T07:23:10.873Z,23.43
2016-10-17T07:24:10.872Z,23.48
2016-10-17T07:25:10.883Z,23.54
2016-10-17T07:26:10.576Z,23.51
2016-10-17T07:27:10.894Z,23.65
2016-10-17T07:28:10.903Z,23.69
2016-10-17T07:29:11.217Z,23.79
2016-10-17T07:30:11.279Z,23.95
2016-10-17T07:31:10.920Z,24.03
2016-10-17T07:32:10.929Z,24.16
2016-10-17T07:33:10.934Z,24.21
2016-10-17T07:34:10.951Z,24.37
2016-10-17T07:35:10.634Z,24.46
2016-10-17T07:36:11.267Z,24.52
2016-10-17T07:37:10.996Z,24.71
2016-10-17T07:38:11.332Z,24.87
2016-10-17T07:39:10.698Z,24.96
2016-10-17T07:40:11.029Z,25.03
2016-10-17T07:41:10.991Z,25.06
2016-10-17T07:42:11.043Z,25.15
2016-10-17T07:43:11.002Z,25.36
2016-10-17T07:44:11.011Z,25.45
2016-10-17T07:45:11.344Z,25.55
2016-10-17T07:46:11.384Z,25.55
2016-10-17T07:47:11.032Z,25.7
2016-10-17T07:48:10.725Z,25.69
2016-10-17T07:49:11.047Z,25.72
2016-10-17T07:50:11.346Z,25.76
2016-10-17T07:51:11.067Z,25.87
2016-10-17T07:52:11.061Z,25.82
2016-10-17T07:53:11.070Z,25.82
2016-10-17T07:54:11.078Z,25.82
2016-10-17T07:55:11.136Z,25.9
2016-10-17T07:56:10.827Z,25.92
2016-10-17T07:57:11.097Z,25.98
2016-10-17T07:58:11.103Z,26.15
2016-10-17T07:59:11.367Z,26.2
2016-10-17T08:00:10.819Z,26.26
2016-10-17T08:01:11.184Z,26.32
2016-10-17T08:02:11.523Z,26.39
2016-10-17T08:03:11.141Z,26.35
2016-10-17T08:04:11.491Z,26.36
2016-10-17T08:05:10.849Z,26.48
2016-10-17T08:06:11.619Z,26.65
2016-10-17T08:07:11.250Z,26.72
2016-10-17T08:08:11.181Z,26.84
2016-10-17T08:09:11.531Z,26.85
2016-10-17T08:10:10.885Z,26.88
2016-10-17T08:11:11.203Z,26.92
2016-10-17T08:12:10.903Z,27.04
2016-10-17T08:13:11.220Z,27.07
2016-10-17T08:14:10.916Z,27.09
2016-10-17T08:15:11.549Z,27.03
2016-10-17T08:16:11.291Z,27
2016-10-17T08:17:11.254Z,26.99
2016-10-17T08:18:10.945Z,27.09
2016-10-17T08:19:11.267Z,27.09
2016-10-17T08:20:11.376Z,27.04
2016-10-17T08:21:11.287Z,27.04
2016-10-17T08:22:11.344Z,27.04
2016-10-17T08:23:11.045Z,27.02
2016-10-17T08:24:11.358Z,26.92
2016-10-17T08:25:11.055Z,27.06
2016-10-17T08:26:11.066Z,26.94
2016-10-17T08:27:11.652Z,26.91
2016-10-17T08:28:11.348Z,26.95
2016-10-17T08:29:11.964Z,26.84
2016-10-17T08:30:11.047Z,26.95
2016-10-17T08:31:11.690Z,26.87
2016-10-17T08:32:11.120Z,26.87
2016-10-17T08:33:11.700Z,26.88
2016-10-17T08:34:11.396Z,26.76
2016-10-17T08:35:11.090Z,26.63
2016-10-17T08:36:11.157Z,26.52
2016-10-17T08:37:11.473Z,26.45
2016-10-17T08:38:11.119Z,26.36
2016-10-17T08:39:11.490Z,26.26
2016-10-17T08:40:11.385Z,26.32
2016-10-17T08:41:11.192Z,26.29
2016-10-17T08:42:11.825Z,26.29
2016-10-17T08:43:11.164Z,26.26
2016-10-17T08:44:11.821Z,26.26
2016-10-17T08:45:11.504Z,26.29
2016-10-17T08:46:11.531Z,26.39
2016-10-17T08:47:11.239Z,26.43
2016-10-17T08:48:11.562Z,26.45
2016-10-17T08:49:11.557Z,26.5
2016-10-17T08:50:11.252Z,26.52
2016-10-17T08:51:11.273Z,26.4
2016-10-17T08:52:11.856Z,26.45
2016-10-17T08:53:11.553Z,26.39
2016-10-17T08:54:11.566Z,26.32
2016-10-17T08:55:11.567Z,26.21
2016-10-17T08:56:11.284Z,26.21
2016-10-17T08:57:11.897Z,26.1
2016-10-17T08:58:12.206Z,26.18
2016-10-17T08:59:11.916Z,26.15
2016-10-17T09:00:11.611Z,26.1
2016-10-17T09:01:11.634Z,26.05
2016-10-17T09:02:11.987Z,26.09
2016-10-17T09:03:11.635Z,26.13
2016-10-17T09:04:11.642Z,26.12
2016-10-17T09:05:11.649Z,26.1
2016-10-17T09:06:12.016Z,26.01
2016-10-17T09:07:11.667Z,26.1
2016-10-17T09:08:11.675Z,26.01
2016-10-17T09:09:11.994Z,25.99
2016-10-17T09:10:12.001Z,26.06
2016-10-17T09:11:11.698Z,25.97
2016-10-17T09:12:12.242Z,25.92
2016-10-17T09:13:12.025Z,25.98
2016-10-17T09:14:12.082Z,26.02
2016-10-17T09:15:12.092Z,26.01
2016-10-17T09:16:11.784Z,25.97
2016-10-17T09:17:11.422Z,26.1
2016-10-17T09:18:12.109Z,26.2
2016-10-17T09:19:11.810Z,26.21
2016-10-17T09:20:12.080Z,26.09
2016-10-17T09:21:11.767Z,26.09
2016-10-17T09:22:11.781Z,26.12
2016-10-17T09:23:12.348Z,26.02
2016-10-17T09:24:12.107Z,26.07
2016-10-17T09:25:11.801Z,26.07
2016-10-17T09:26:11.806Z,26.09
2016-10-17T09:27:11.868Z,26.1
2016-10-17T09:28:12.141Z,26.09
2016-10-17T09:29:12.193Z,26.1
2016-10-17T09:30:12.151Z,26.15
2016-10-17T09:31:11.533Z,26.05
2016-10-17T09:32:11.541Z,26.09
2016-10-17T09:33:11.888Z,26.12
2016-10-17T09:34:11.868Z,26.12
2016-10-17T09:35:12.193Z,26.09
2016-10-17T09:36:11.930Z,26.12
2016-10-17T09:37:12.203Z,26.06
2016-10-17T09:38:12.214Z,26.1
2016-10-17T09:39:11.905Z,26.12
2016-10-17T09:40:12.224Z,26.15
2016-10-17T09:41:11.926Z,26.21
2016-10-17T09:42:11.977Z,26.17
2016-10-17T09:43:11.934Z,26.17
2016-10-17T09:44:11.628Z,26.09
2016-10-17T09:45:11.635Z,26.12
2016-10-17T09:46:12.271Z,25.99
2016-10-17T09:47:11.963Z,26.09
2016-10-17T09:48:12.023Z,26.15
2016-10-17T09:49:11.979Z,26.13
2016-10-17T09:50:12.037Z,26.07
2016-10-17T09:51:11.996Z,25.99
2016-10-17T09:52:12.313Z,26.01
2016-10-17T09:53:12.057Z,25.99
2016-10-17T09:54:11.703Z,26.05
2016-10-17T09:55:12.072Z,26.1
2016-10-17T09:56:11.733Z,25.97
2016-10-17T09:57:12.040Z,25.99
2016-10-17T09:58:12.047Z,25.91
2016-10-17T09:59:12.055Z,25.92
2016-10-17T10:00:12.059Z,26.07
2016-10-17T10:01:12.068Z,26.02
2016-10-17T10:02:12.385Z,25.99
2016-10-17T10:03:12.398Z,26.02
2016-10-17T10:04:12.121Z,26.05
2016-10-17T10:05:12.410Z,25.97
2016-10-17T10:06:11.846Z,26.01
2016-10-17T10:07:12.422Z,25.97
2016-10-17T10:08:12.122Z,25.97
2016-10-17T10:09:11.813Z,25.9
2016-10-17T10:10:12.172Z,26.06
2016-10-17T10:11:12.457Z,26.02
2016-10-17T10:12:12.458Z,25.91
2016-10-17T10:13:12.159Z,26.02
2016-10-17T10:14:12.184Z,25.91
2016-10-17T10:15:12.487Z,25.99
2016-10-17T10:16:12.542Z,25.97
2016-10-17T10:17:12.495Z,25.87
2016-10-17T10:18:12.220Z,25.88
2016-10-17T10:19:12.252Z,25.83
2016-10-17T10:20:12.259Z,25.83
2016-10-17T10:21:12.526Z,25.82
2016-10-17T10:22:11.934Z,25.85
2016-10-17T10:23:12.562Z,25.83
2016-10-17T10:24:12.552Z,25.88
2016-10-17T10:25:12.250Z,25.85
2016-10-17T10:26:12.561Z,25.85
2016-10-17T10:27:12.313Z,25.9
2016-10-17T10:28:12.266Z,25.83
2016-10-17T10:29:12.014Z,25.8
2016-10-17T10:30:12.284Z,25.83
2016-10-17T10:31:12.602Z,25.75
2016-10-17T10:32:12.397Z,25.76
2016-10-17T10:33:12.310Z,25.76
2016-10-17T10:34:12.725Z,25.75
2016-10-17T10:35:12.407Z,25.76
2016-10-17T10:36:12.638Z,25.76
2016-10-17T10:37:12.694Z,25.83
2016-10-17T10:38:12.701Z,25.77
2016-10-17T10:39:12.037Z,25.76
2016-10-17T10:40:12.409Z,25.88
2016-10-17T10:41:12.148Z,25.8
2016-10-17T10:42:12.402Z,25.79
2016-10-17T10:43:12.377Z,25.75
2016-10-17T10:44:12.695Z,25.73
2016-10-17T10:45:12.393Z,25.82
2016-10-17T10:46:12.397Z,25.76
2016-10-17T10:47:12.723Z,25.79
2016-10-17T10:48:12.415Z,25.85
2016-10-17T10:49:12.108Z,25.72
2016-10-17T10:50:12.234Z,25.82
2016-10-17T10:51:12.750Z,25.79
2016-10-17T10:52:12.439Z,25.8
2016-10-17T10:53:12.134Z,25.79
2016-10-17T10:54:12.143Z,25.73
2016-10-17T10:55:12.514Z,25.72
2016-10-17T10:56:12.159Z,25.77
2016-10-17T10:57:12.787Z,25.87
2016-10-17T10:58:12.485Z,25.8
2016-10-17T10:59:12.806Z,25.8
2016-10-17T11:00:12.547Z,25.72
2016-10-17T11:01:12.515Z,25.77
2016-10-17T11:02:12.565Z,25.87
2016-10-17T11:03:12.883Z,25.8
2016-10-17T11:04:12.842Z,25.88
2016-10-17T11:05:12.851Z,25.85
2016-10-17T11:06:12.854Z,25.77
2016-10-17T11:07:12.550Z,25.73
2016-10-17T11:08:12.241Z,25.87
2016-10-17T11:09:12.560Z,25.76
2016-10-17T11:10:12.668Z,25.76
2016-10-17T11:11:12.941Z,25.77
2016-10-17T11:12:12.583Z,25.8
2016-10-17T11:13:12.627Z,25.87
2016-10-17T11:14:27.479Z,25.83
2016-10-17T11:15:12.920Z,25.73
2016-10-17T11:16:12.295Z,25.85
2016-10-17T11:17:12.621Z,25.85
2016-10-17T11:18:12.680Z,25.87
2016-10-17T11:19:12.636Z,25.95
2016-10-17T11:20:13.002Z,25.87
2016-10-17T11:21:12.695Z,25.88
2016-10-17T11:22:12.968Z,25.88
2016-10-17T11:23:12.391Z,25.87
2016-10-17T11:24:12.984Z,25.9
2016-10-17T11:25:12.724Z,25.83
2016-10-17T11:26:13.295Z,25.87
2016-10-17T11:27:12.690Z,25.88
2016-10-17T11:28:12.707Z,25.9
2016-10-17T11:29:13.016Z,25.88
2016-10-17T11:30:12.767Z,25.91
2016-10-17T11:31:12.720Z,25.85
2016-10-17T11:32:13.070Z,25.85
2016-10-17T11:33:13.143Z,25.91
2016-10-17T11:34:13.055Z,25.83
2016-10-17T11:35:12.752Z,25.9
2016-10-17T11:36:13.116Z,25.8
2016-10-17T11:37:13.071Z,25.85
2016-10-17T11:38:12.766Z,25.82
2016-10-17T11:39:12.825Z,25.83
2016-10-17T11:40:13.095Z,25.85
2016-10-17T11:41:12.477Z,25.83
2016-10-17T11:42:12.800Z,25.85
2016-10-17T11:43:12.835Z,25.75
2016-10-17T11:44:13.126Z,25.8
2016-10-17T11:45:12.819Z,25.79
2016-10-17T11:46:12.825Z,25.76
2016-10-17T11:47:12.881Z,25.79
2016-10-17T11:48:12.889Z,25.83
2016-10-17T11:49:12.539Z,25.77
2016-10-17T11:50:12.857Z,25.79
2016-10-17T11:51:12.909Z,25.87
2016-10-17T11:52:12.915Z,25.75
2016-10-17T11:53:12.873Z,25.85
2016-10-17T11:54:12.886Z,25.79
2016-10-17T11:55:12.891Z,25.73
2016-10-17T11:56:12.585Z,25.88
2016-10-17T11:57:12.905Z,25.9
2016-10-17T11:58:12.962Z,25.76
2016-10-17T11:59:12.917Z,25.79
2016-10-17T12:00:12.925Z,25.76
2016-10-17T12:01:13.245Z,25.76
2016-10-17T12:02:13.249Z,25.82
2016-10-17T12:03:13.257Z,25.75
2016-10-17T12:04:12.644Z,25.75
2016-10-17T12:05:13.325Z,25.72
2016-10-17T12:06:13.285Z,25.75
2016-10-17T12:07:12.973Z,25.88
2016-10-17T12:08:13.302Z,25.76
2016-10-17T12:09:12.736Z,25.87
2016-10-17T12:10:12.688Z,25.83
2016-10-17T12:11:13.003Z,25.76
2016-10-17T12:12:13.010Z,25.85
2016-10-17T12:13:13.329Z,25.83
2016-10-17T12:14:13.023Z,25.9
2016-10-17T12:15:13.032Z,25.82
2016-10-17T12:16:12.727Z,25.9
2016-10-17T12:17:13.607Z,25.73
2016-10-17T12:18:13.054Z,25.79
2016-10-17T12:19:13.065Z,25.77
2016-10-17T12:20:12.806Z,25.82
2016-10-17T12:21:13.397Z,25.73
2016-10-17T12:22:13.646Z,25.88
2016-10-17T12:23:13.190Z,25.87
2016-10-17T12:24:13.097Z,25.73
2016-10-17T12:25:13.422Z,25.76
2016-10-17T12:26:13.108Z,25.76
2016-10-17T12:27:13.166Z,25.76
2016-10-17T12:28:12.862Z,25.8
2016-10-17T12:29:13.576Z,25.79
2016-10-17T12:30:13.505Z,25.73
2016-10-17T12:31:12.885Z,25.79
2016-10-17T12:32:12.877Z,25.75
2016-10-17T12:33:12.852Z,25.88
2016-10-17T12:34:13.165Z,25.9
2016-10-17T12:35:13.174Z,25.9
2016-10-17T12:36:13.184Z,25.91
2016-10-17T12:37:13.187Z,25.87
2016-10-17T12:38:13.194Z,25.91
2016-10-17T12:39:12.888Z,25.91
2016-10-17T12:40:13.145Z,25.83
2016-10-17T12:41:13.216Z,25.87
2016-10-17T12:42:13.535Z,25.85
2016-10-17T12:43:13.232Z,25.79
2016-10-17T12:44:13.240Z,25.94
2016-10-17T12:45:13.244Z,25.8
2016-10-17T12:46:12.992Z,25.88
2016-10-17T12:47:13.676Z,25.83
2016-10-17T12:48:12.951Z,25.91
2016-10-17T12:49:13.644Z,25.85
2016-10-17T12:50:13.281Z,25.9
2016-10-17T12:51:13.286Z,25.85
2016-10-17T12:52:13.758Z,25.85
2016-10-17T12:53:13.302Z,25.92
2016-10-17T12:54:13.627Z,25.9